createdAt,value
2019-02-15T09:47:13.884Z,6.80
2019-02-15T09:49:45.201Z,6.70
2019-02-15T09:52:46.172Z,6.60
2019-02-15T09:55:16.618Z,6.60
2019-02-15T09:57:47.190Z,6.70
2019-02-15T10:00:16.748Z,6.70
2019-02-15T10:02:46.687Z,6.90
2019-02-15T10:05:16.255Z,7.00
2019-02-15T10:07:46.225Z,7.10
2019-02-15T10:12:50.994Z,7.30
2019-02-15T10:15:20.950Z,7.40
2019-02-15T10:18:18.326Z,7.60
2019-02-15T10:20:47.837Z,7.70
2019-02-15T10:23:17.326Z,7.70
2019-02-15T10:25:49.848Z,7.90
2019-02-15T11:26:55.333Z,10.70
2019-02-15T13:18:59.308Z,13.60
2019-02-15T13:21:28.865Z,13.70
2019-02-15T14:09:10.244Z,13.70
2019-02-15T14:11:40.188Z,13.70
2019-02-15T14:16:54.801Z,13.60
2019-02-15T14:19:42.835Z,13.70
2019-02-15T14:22:13.206Z,13.70
2019-02-15T14:24:42.728Z,13.60
2019-02-15T14:27:12.571Z,13.80
2019-02-15T14:29:42.399Z,13.80
2019-02-15T14:32:11.921Z,13.70
2019-02-15T14:34:41.430Z,13.70
2019-02-15T14:37:11.648Z,13.70
2019-02-15T14:39:50.415Z,13.90
2019-02-15T14:42:19.942Z,13.90
2019-02-15T14:44:55.388Z,13.80
2019-02-15T14:47:25.645Z,13.60
2019-02-15T14:49:55.526Z,13.50
2019-02-15T14:52:25.341Z,13.40
2019-02-15T14:54:54.946Z,13.30
2019-02-15T14:57:25.329Z,13.20
2019-02-15T14:59:54.883Z,13.40
2019-02-15T15:02:32.692Z,13.70
2019-02-15T15:05:02.478Z,13.60
2019-02-15T15:07:32.983Z,13.50
2019-02-15T15:10:02.503Z,13.50
2019-02-15T15:12:37.968Z,13.50
2019-02-15T15:15:08.679Z,13.50
2019-02-15T15:17:38.211Z,13.40
2019-02-15T15:20:09.998Z,13.30
2019-02-15T15:22:40.114Z,13.30
2019-02-15T15:25:10.653Z,13.20
2019-02-15T15:27:40.453Z,13.00
2019-02-15T15:30:11.205Z,12.90
2019-02-15T15:32:40.881Z,12.70
2019-02-15T15:35:25.897Z,12.80
2019-02-15T15:37:55.795Z,12.80
2019-02-15T15:40:25.834Z,12.70
2019-02-15T15:43:09.934Z,12.70
2019-02-15T15:45:39.460Z,12.70
2019-02-15T15:48:22.679Z,12.70
2019-02-15T15:50:47.733Z,12.70
2019-02-15T15:53:18.414Z,12.80
2019-02-15T15:55:48.379Z,12.70
2019-02-15T15:58:17.927Z,12.80
2019-02-15T16:00:48.060Z,12.60
2019-02-15T16:03:17.661Z,12.50
2019-02-15T16:05:47.840Z,12.40
2019-02-15T16:08:17.731Z,12.30
2019-02-15T16:11:26.329Z,12.10
2019-02-15T16:14:08.592Z,12.00
2019-02-15T16:16:55.516Z,11.90
2019-02-15T16:19:30.928Z,12.00
2019-02-15T16:22:00.771Z,11.90
2019-02-15T16:24:30.329Z,11.80
2019-02-15T16:27:08.987Z,11.50
2019-02-15T16:29:38.560Z,11.30
2019-02-15T16:32:16.583Z,11.10
2019-02-15T16:34:46.139Z,10.80
2019-02-15T16:37:16.727Z,10.70
2019-02-15T16:39:46.620Z,10.50
2019-02-15T16:42:17.231Z,10.30
2019-02-15T16:44:46.883Z,10.20
2019-02-15T16:47:16.467Z,10.00
2019-02-15T16:49:46.081Z,9.90
2019-02-15T16:52:30.007Z,9.70
2019-02-15T16:55:12.678Z,9.60
2019-02-15T16:57:42.848Z,9.50
2019-02-15T17:00:15.177Z,9.40
2019-02-15T17:02:56.935Z,9.30
2019-02-15T17:06:02.839Z,9.20
2019-02-15T17:09:03.640Z,9.10
2019-02-15T17:11:33.190Z,8.90
2019-02-15T17:14:03.147Z,8.80
2019-02-15T17:16:39.314Z,8.70
2019-02-15T17:19:15.689Z,8.60
2019-02-15T17:21:45.619Z,8.50
2019-02-15T17:24:17.573Z,8.30
2019-02-15T17:26:47.101Z,8.20
2019-02-15T17:29:35.301Z,8.10
2019-02-15T17:32:04.838Z,8.00
2019-02-15T17:34:34.339Z,7.80
2019-02-15T17:37:03.836Z,7.80
2019-02-15T17:39:33.468Z,7.70
2019-02-15T17:42:03.066Z,7.60
2019-02-15T17:44:36.771Z,7.50
2019-02-15T17:47:06.378Z,7.50
2019-02-15T17:49:36.068Z,7.50
2019-02-15T17:52:05.593Z,7.50
2019-02-15T17:54:35.159Z,7.40
2019-02-15T17:57:20.942Z,7.40
2019-02-15T17:59:52.503Z,7.30
2019-02-15T18:02:35.409Z,7.20
2019-02-15T18:05:09.396Z,7.00
2019-02-15T18:07:39.047Z,6.80
2019-02-15T18:10:09.984Z,6.80
2019-02-15T18:12:39.530Z,6.70
2019-02-15T18:15:31.024Z,6.70
2019-02-15T18:18:00.520Z,6.50
2019-02-15T18:20:30.051Z,6.40
2019-02-15T18:22:59.949Z,6.40
2019-02-15T18:25:29.512Z,6.40
2019-02-15T18:30:28.745Z,6.30
2019-02-15T18:53:00.654Z,5.60
2019-02-15T18:58:01.438Z,5.20
2019-02-15T19:41:06.550Z,4.50
2019-02-15T19:43:36.056Z,4.50
2019-02-15T19:46:05.588Z,4.50
2019-02-15T19:48:58.880Z,4.40
2019-02-15T19:51:28.809Z,4.40
2019-02-15T19:54:23.563Z,4.20
2019-02-15T20:40:10.311Z,3.20
2019-02-15T20:43:16.821Z,3.30
2019-02-15T20:45:54.891Z,3.30
2019-02-15T20:48:24.401Z,3.30
2019-02-15T20:50:54.325Z,3.40
2019-02-15T20:53:29.655Z,3.40
2019-02-15T20:55:59.321Z,3.30
2019-02-15T20:58:29.060Z,3.30
2019-02-15T21:00:58.556Z,3.20
2019-02-15T21:03:28.117Z,3.20
2019-02-15T21:05:57.610Z,3.10
2019-02-15T21:08:27.146Z,3.00
2019-02-15T21:10:57.493Z,3.00
2019-02-15T21:13:27.463Z,3.00
2019-02-15T21:15:57.564Z,3.00
2019-02-15T21:18:27.157Z,2.90
2019-02-15T21:20:57.422Z,2.90
2019-02-15T21:23:26.945Z,2.80
2019-02-15T21:25:56.658Z,2.80
2019-02-15T21:28:26.192Z,2.70
2019-02-15T21:31:06.211Z,2.70
2019-02-15T21:33:35.727Z,2.70
2019-02-15T21:36:05.214Z,2.60
2019-02-15T21:38:34.767Z,2.70
2019-02-15T21:41:04.769Z,2.60
2019-02-15T21:44:16.578Z,2.60
2019-02-15T21:46:46.492Z,2.60
2019-02-15T21:49:16.079Z,2.60
2019-02-15T21:51:46.024Z,2.50
2019-02-15T21:54:15.575Z,2.50
2019-02-15T21:57:14.576Z,2.50
2019-02-15T21:59:44.523Z,2.50
2019-02-15T22:02:14.044Z,2.60
2019-02-15T22:04:43.556Z,2.70
2019-02-15T22:07:13.104Z,2.70
2019-02-15T22:09:43.371Z,2.60
2019-02-15T22:12:14.067Z,2.60
2019-02-15T22:14:44.470Z,2.50
2019-02-15T22:17:33.265Z,2.40
2019-02-15T22:20:02.793Z,2.30
2019-02-15T22:22:42.942Z,2.20
2019-02-15T22:27:49.403Z,2.30
2019-02-15T22:30:26.711Z,2.40
2019-02-15T22:32:56.280Z,2.30
2019-02-15T22:35:26.860Z,2.20
2019-02-15T22:37:56.490Z,2.00
2019-02-15T22:40:33.479Z,1.90
2019-02-15T22:43:12.375Z,1.80
2019-02-15T22:48:11.324Z,1.70
2019-02-15T22:50:40.904Z,1.70
2019-02-15T22:53:29.342Z,1.60
2019-02-15T22:55:58.884Z,1.60
2019-02-15T22:58:28.851Z,1.50
2019-02-15T23:01:04.805Z,1.50
2019-02-15T23:03:34.737Z,1.40
2019-02-15T23:06:04.270Z,1.30
2019-02-15T23:08:34.251Z,1.30
2019-02-15T23:11:04.772Z,1.30
2019-02-15T23:13:34.356Z,1.20
2019-02-15T23:16:04.660Z,1.20
2019-02-15T23:18:34.616Z,1.10
2019-02-15T23:21:04.580Z,1.10
